createdAt,value
2023-03-05T07:37:41.521Z,14.70
2023-03-05T07:43:45.668Z,16.00
2023-03-05T07:49:48.784Z,16.20
2023-03-05T07:55:53.331Z,17.90
2023-03-05T08:01:56.541Z,16.60
2023-03-05T08:07:59.590Z,16.00
2023-03-05T08:14:02.733Z,18.20
2023-03-05T08:20:10.505Z,20.00
2023-03-05T08:26:15.182Z,16.00
2023-03-05T08:32:18.288Z,15.70
2023-03-05T08:38:21.257Z,15.50
2023-03-05T08:44:24.215Z,16.60
2023-03-05T08:50:27.280Z,16.20
2023-03-05T08:56:31.437Z,18.40
2023-03-05T09:02:35.405Z,16.20
2023-03-05T09:08:39.018Z,13.40
2023-03-05T09:14:42.919Z,14.10
2023-03-05T09:20:46.052Z,19.80
2023-03-05T09:26:49.065Z,20.20
2023-03-05T09:32:52.355Z,18.90
2023-03-05T09:38:55.692Z,15.00
2023-03-05T09:45:20.027Z,17.50
2023-03-05T09:51:26.361Z,20.10
2023-03-05T09:57:39.454Z,20.00
2023-03-05T10:04:07.159Z,17.00
2023-03-05T10:10:14.363Z,19.40
2023-03-05T10:16:56.251Z,19.00
2023-03-05T10:22:59.379Z,18.60
2023-03-05T10:29:17.606Z,20.10
2023-03-05T10:35:32.695Z,18.30
2023-03-05T10:42:02.570Z,18.60
2023-03-05T10:48:13.595Z,17.80
2023-03-05T10:54:25.390Z,17.20
2023-03-05T11:00:30.060Z,22.90
2023-03-05T11:06:37.546Z,23.00
2023-03-05T11:12:40.650Z,17.50
2023-03-05T11:18:49.639Z,16.90
2023-03-05T11:25:22.681Z,15.70
2023-03-05T11:31:30.733Z,18.50
2023-03-05T11:37:42.306Z,13.90
2023-03-05T11:43:45.605Z,14.70
2023-03-05T11:49:51.393Z,15.00
2023-03-05T11:56:13.288Z,14.60
2023-03-05T12:02:22.847Z,12.50
2023-03-05T12:08:33.408Z,11.80
2023-03-05T12:14:46.300Z,8.90
2023-03-05T12:21:08.409Z,10.90
2023-03-05T12:27:15.785Z,10.50
2023-03-05T12:33:38.394Z,8.60
2023-03-05T12:39:51.007Z,9.50
2023-03-05T12:46:23.215Z,10.70
2023-03-05T12:52:31.942Z,12.20
2023-03-05T12:58:42.185Z,10.50
2023-03-05T13:04:47.750Z,9.40
2023-03-05T13:11:18.907Z,10.50
2023-03-05T13:17:29.313Z,15.60
2023-03-05T13:23:34.127Z,14.70
2023-03-05T13:29:52.585Z,14.80
2023-03-05T13:35:56.126Z,14.60
2023-03-05T13:42:14.659Z,13.20
2023-03-05T13:48:20.722Z,11.20
2023-03-05T13:54:25.226Z,15.20
2023-03-05T14:00:35.674Z,14.80
2023-03-05T14:07:03.080Z,17.30
2023-03-05T14:13:13.164Z,14.60
2023-03-05T14:19:36.884Z,12.80
2023-03-05T14:25:40.569Z,16.90
2023-03-05T14:31:51.441Z,15.20
2023-03-05T14:37:57.121Z,12.40
2023-03-05T14:44:09.782Z,15.80
2023-03-05T14:50:20.149Z,12.20
2023-03-05T14:56:28.135Z,9.70
2023-03-05T15:02:31.215Z,8.10
2023-03-05T15:08:40.933Z,5.00
2023-03-05T15:14:46.523Z,5.70
2023-03-05T15:20:53.036Z,5.90
2023-03-05T15:33:03.578Z,5.30
2023-03-05T15:39:07.956Z,5.40
2023-03-05T15:45:11.290Z,7.60
2023-03-05T15:51:14.220Z,8.70
2023-03-05T15:57:17.514Z,6.50
2023-03-05T16:03:20.944Z,7.70
2023-03-05T16:09:27.034Z,8.30
2023-03-05T16:15:33.893Z,7.90
2023-03-05T16:21:39.719Z,7.20
2023-03-05T16:27:43.402Z,7.70
2023-03-05T16:33:48.146Z,6.70
2023-03-05T16:39:51.675Z,6.60
2023-03-05T16:45:56.910Z,6.40
2023-03-05T16:52:06.185Z,5.50
2023-03-05T16:58:19.718Z,6.80
2023-03-05T17:04:25.356Z,9.60
2023-03-05T17:10:28.882Z,7.60
2023-03-05T17:16:32.340Z,8.40
2023-03-05T17:22:35.666Z,10.90
2023-03-05T17:28:40.692Z,8.60
2023-03-05T17:34:47.012Z,9.70
2023-03-05T17:40:59.093Z,9.70
2023-03-05T17:47:02.511Z,8.90
2023-03-05T17:53:07.984Z,9.60
2023-03-05T17:59:11.656Z,10.10
2023-03-05T18:05:15.622Z,9.80
2023-03-05T18:11:18.933Z,10.40
2023-03-05T18:17:24.840Z,9.10
2023-03-05T18:23:33.168Z,12.70
2023-03-05T18:29:37.406Z,13.40
2023-03-05T18:35:40.919Z,12.70
2023-03-05T18:41:44.594Z,13.50
2023-03-05T18:47:49.237Z,14.40
2023-03-05T18:53:56.135Z,14.60
2023-03-05T19:00:04.078Z,13.90
2023-03-05T19:06:11.544Z,15.50
2023-03-05T19:12:15.963Z,13.50
2023-03-05T19:18:28.758Z,13.60
2023-03-05T19:24:38.534Z,14.00
2023-03-05T19:30:53.515Z,13.10
2023-03-05T19:37:16.528Z,14.20
2023-03-05T19:43:38.208Z,15.10
2023-03-05T19:49:49.411Z,15.00
2023-03-05T19:55:58.237Z,16.90
2023-03-05T20:02:01.713Z,15.70
2023-03-05T20:08:07.073Z,19.60
2023-03-05T20:14:14.067Z,18.80
2023-03-05T20:20:21.286Z,17.20
2023-03-05T20:26:32.489Z,19.60
2023-03-05T20:32:45.506Z,23.50
2023-03-05T20:38:53.861Z,20.40
2023-03-05T20:44:57.312Z,18.60
2023-03-05T20:51:22.853Z,14.50
2023-03-05T20:57:25.927Z,16.30
2023-03-05T21:03:29.990Z,15.90
2023-03-05T21:09:33.012Z,13.80
2023-03-05T21:15:36.052Z,14.60
2023-03-05T21:21:44.734Z,12.90
2023-03-05T21:28:01.710Z,13.80
2023-03-05T21:34:04.712Z,13.50
2023-03-05T21:40:10.431Z,11.70
2023-03-05T21:46:15.533Z,13.70
2023-03-05T21:52:19.343Z,13.80
2023-03-05T21:58:24.338Z,14.70
2023-03-05T22:04:28.954Z,14.30
2023-03-05T22:10:32.775Z,14.70
2023-03-05T22:16:36.548Z,16.90
2023-03-05T22:22:39.991Z,14.70
2023-03-05T22:28:42.865Z,17.30
2023-03-05T22:34:45.817Z,15.50
2023-03-05T22:40:49.564Z,14.20
2023-03-05T22:46:52.635Z,15.40
2023-03-05T22:52:55.747Z,16.80
2023-03-05T22:58:58.799Z,18.10
2023-03-05T23:05:03.476Z,17.00
2023-03-05T23:11:11.019Z,19.00
2023-03-05T23:17:15.278Z,17.30
2023-03-05T23:23:18.105Z,15.50
2023-03-05T23:29:21.066Z,17.80
2023-03-05T23:35:34.876Z,17.90
2023-03-05T23:41:37.741Z,17.20
2023-03-05T23:47:43.452Z,17.40
2023-03-05T23:53:46.544Z,17.90
2023-03-05T23:59:51.570Z,16.30
